createdAt,value
2022-12-28T00:01:22.839Z,101331.88
2022-12-28T00:03:49.939Z,101328.03
2022-12-28T00:06:17.916Z,101321.97
2022-12-28T00:08:44.668Z,101315.31
2022-12-28T00:11:27.784Z,101303.56
2022-12-28T00:13:59.239Z,101292.78
2022-12-28T00:16:35.474Z,101299.31
2022-12-28T00:19:05.800Z,101298.47
2022-12-28T00:21:32.829Z,101291.59
2022-12-28T00:24:00.579Z,101292.91
2022-12-28T00:26:32.147Z,101289.47
2022-12-28T00:29:04.276Z,101285.09
2022-12-28T00:31:32.927Z,101294.31
2022-12-28T00:33:59.438Z,101284.72
2022-12-28T00:37:09.947Z,101267.59
2022-12-28T00:39:12.551Z,101277.38
2022-12-28T00:41:38.934Z,101261.69
2022-12-28T00:44:08.054Z,101252.53
2022-12-28T00:46:34.566Z,101248.50
2022-12-28T00:49:01.873Z,101253.50
2022-12-28T00:51:28.552Z,101250.63
2022-12-28T00:53:55.004Z,101237.91
2022-12-28T00:56:22.484Z,101245.31
2022-12-28T00:58:49.568Z,101235.38
2022-12-28T01:01:26.816Z,101223.34
2022-12-28T01:03:56.770Z,101229.63
2022-12-28T01:06:25.635Z,101225.50
2022-12-28T01:08:52.226Z,101215.88
2022-12-28T01:11:24.260Z,101214.38
2022-12-28T01:13:54.803Z,101211.09
2022-12-28T01:16:25.921Z,101205.19
2022-12-28T01:18:54.744Z,101202.59
2022-12-28T01:21:23.356Z,101212.13
2022-12-28T01:23:52.598Z,101203.84
2022-12-28T01:26:19.010Z,101198.28
2022-12-28T01:28:45.471Z,101194.47
2022-12-28T01:31:15.719Z,101184.91
2022-12-28T01:33:42.953Z,101191.03
2022-12-28T01:36:14.863Z,101174.72
2022-12-28T01:38:42.026Z,101178.66
2022-12-28T01:41:15.340Z,101161.88
2022-12-28T01:43:41.767Z,101150.38
2022-12-28T01:46:10.701Z,101145.13
2022-12-28T01:48:48.257Z,101138.94
2022-12-28T01:51:16.415Z,101134.38
2022-12-28T01:53:43.089Z,101129.81
2022-12-28T01:56:09.982Z,101135.44
2022-12-28T01:58:36.847Z,101133.19
2022-12-28T02:01:04.717Z,101124.53
2022-12-28T02:03:34.548Z,101126.28
2022-12-28T02:06:05.128Z,101116.03
2022-12-28T02:08:58.583Z,101105.06
2022-12-28T02:11:25.068Z,101115.16
2022-12-28T02:13:53.258Z,101108.06
2022-12-28T02:16:19.910Z,101107.97
2022-12-28T02:18:47.827Z,101101.47
2022-12-28T02:21:30.085Z,101103.72
2022-12-28T02:24:22.674Z,101092.28
2022-12-28T02:27:18.189Z,101089.59
2022-12-28T02:30:06.767Z,101085.63
2022-12-28T02:32:51.440Z,101077.47
2022-12-28T02:35:53.397Z,101075.50
2022-12-28T02:38:38.193Z,101080.69
2022-12-28T02:41:14.843Z,101063.13
2022-12-28T02:43:41.612Z,101061.28
2022-12-28T02:46:36.919Z,101058.69
2022-12-28T02:49:45.532Z,101033.34
2022-12-28T02:52:34.709Z,101029.34
2022-12-28T02:56:03.173Z,101024.19
2022-12-28T02:58:44.776Z,101013.41
2022-12-28T03:01:13.841Z,101007.16
2022-12-28T03:04:09.236Z,101008.59
2022-12-28T03:07:14.844Z,100998.72
2022-12-28T03:09:54.333Z,100985.13
2022-12-28T03:12:30.644Z,100986.94
2022-12-28T03:15:04.569Z,100981.84
2022-12-28T03:17:56.469Z,100981.63
2022-12-28T03:20:46.998Z,100981.16
2022-12-28T03:23:35.139Z,100977.56
2022-12-28T03:26:24.712Z,100967.41
2022-12-28T03:29:12.914Z,100968.63
2022-12-28T03:31:42.824Z,100957.50
2022-12-28T03:34:12.680Z,100954.22
2022-12-28T03:37:02.592Z,100948.72
2022-12-28T03:39:39.713Z,100947.31
2022-12-28T03:42:45.850Z,100922.03
2022-12-28T03:45:44.441Z,100912.56
2022-12-28T03:48:10.941Z,100913.28
2022-12-28T03:50:40.448Z,100899.09
2022-12-28T03:53:08.274Z,100890.69
2022-12-28T03:55:37.764Z,100881.69
2022-12-28T03:58:05.502Z,100879.69
2022-12-28T04:00:32.735Z,100850.69
2022-12-28T04:02:59.583Z,100854.41
2022-12-28T04:05:26.514Z,100846.06
2022-12-28T04:07:53.400Z,100839.13
2022-12-28T04:10:19.937Z,100848.91
2022-12-28T04:12:46.726Z,100840.84
2022-12-28T04:15:26.692Z,100831.63
2022-12-28T04:17:53.266Z,100829.16
2022-12-28T04:20:19.693Z,100826.34
2022-12-28T04:22:46.310Z,100825.03
2022-12-28T04:25:13.066Z,100823.19
2022-12-28T04:27:39.962Z,100815.00
2022-12-28T04:30:15.937Z,100809.97
2022-12-28T04:32:42.535Z,100802.34
2022-12-28T04:35:09.233Z,100806.09
2022-12-28T04:37:47.347Z,100797.44
2022-12-28T04:40:14.115Z,100786.19
2022-12-28T04:42:40.587Z,100789.69
2022-12-28T04:45:07.517Z,100785.84
2022-12-28T04:47:33.918Z,100781.50
2022-12-28T04:50:00.325Z,100772.59
2022-12-28T04:52:26.789Z,100758.53
2022-12-28T04:54:53.193Z,100766.16
2022-12-28T04:57:19.573Z,100756.44
2022-12-28T04:59:46.010Z,100757.03
2022-12-28T05:02:12.877Z,100750.59
2022-12-28T05:04:39.399Z,100742.16
2022-12-28T05:07:05.753Z,100737.47
2022-12-28T05:09:32.166Z,100748.25
2022-12-28T05:11:58.595Z,100737.09
2022-12-28T05:14:25.004Z,100742.13
2022-12-28T05:16:52.098Z,100731.72
2022-12-28T05:19:18.555Z,100738.66
2022-12-28T05:21:45.016Z,100733.34
2022-12-28T05:24:11.541Z,100739.53
2022-12-28T05:26:37.920Z,100732.75
2022-12-28T05:29:04.509Z,100726.63
2022-12-28T05:31:30.889Z,100723.75
2022-12-28T05:33:57.548Z,100726.38
2022-12-28T05:36:26.748Z,100715.97
2022-12-28T05:38:54.595Z,100730.47
2022-12-28T05:41:28.945Z,100726.47
2022-12-28T05:43:57.042Z,100718.97
2022-12-28T05:46:29.226Z,100715.19
2022-12-28T05:48:55.728Z,100712.03
2022-12-28T05:51:25.203Z,100714.28
2022-12-28T05:53:51.775Z,100701.81
2022-12-28T05:56:21.362Z,100705.94
2022-12-28T05:58:53.794Z,100695.63
2022-12-28T06:01:23.158Z,100693.50
2022-12-28T06:03:53.855Z,100688.94
2022-12-28T06:06:21.266Z,100684.44
2022-12-28T06:08:49.197Z,100684.06
2022-12-28T06:11:20.761Z,100689.69
2022-12-28T06:13:47.619Z,100677.34
2022-12-28T06:16:18.628Z,100664.94
2022-12-28T06:18:45.717Z,100665.34
2022-12-28T06:21:16.214Z,100665.25
2022-12-28T06:23:44.137Z,100666.63
2022-12-28T06:26:13.376Z,100664.16
2022-12-28T06:28:41.090Z,100661.06
2022-12-28T06:31:12.028Z,100665.53
2022-12-28T06:33:39.210Z,100676.50
2022-12-28T06:36:19.860Z,100659.75
2022-12-28T06:38:48.117Z,100663.31
2022-12-28T06:41:16.056Z,100661.78
2022-12-28T06:43:43.607Z,100667.41
2022-12-28T06:46:10.917Z,100658.59
2022-12-28T06:48:37.964Z,100652.34
2022-12-28T06:51:11.369Z,100661.97
2022-12-28T06:53:38.785Z,100647.34
2022-12-28T06:56:12.810Z,100663.59
2022-12-28T06:58:39.527Z,100672.09
2022-12-28T07:01:21.507Z,100651.22
2022-12-28T07:03:50.437Z,100654.47
2022-12-28T07:06:18.436Z,100646.47
2022-12-28T07:08:45.946Z,100642.63
2022-12-28T07:11:16.022Z,100633.09
2022-12-28T07:13:42.909Z,100633.81
2022-12-28T07:16:14.668Z,100643.13
2022-12-28T07:18:42.161Z,100631.44
2022-12-28T07:21:12.044Z,100632.00
2022-12-28T07:23:38.595Z,100637.00
2022-12-28T07:26:12.014Z,100634.50
2022-12-28T07:28:44.054Z,100627.78
2022-12-28T07:31:13.496Z,100641.06
2022-12-28T07:33:40.772Z,100637.56
2022-12-28T07:36:09.869Z,100648.38
2022-12-28T07:38:36.314Z,100646.59
2022-12-28T07:41:08.137Z,100647.94
2022-12-28T07:43:34.953Z,100644.13
2022-12-28T07:46:11.116Z,100633.13
2022-12-28T07:48:39.112Z,100630.19
2022-12-28T07:51:18.711Z,100640.81
2022-12-28T07:53:47.789Z,100633.19
2022-12-28T07:56:15.220Z,100635.91
2022-12-28T08:01:10.623Z,100638.16
2022-12-28T08:03:37.675Z,100631.53
2022-12-28T08:06:06.728Z,100628.16
2022-12-28T08:08:42.109Z,100637.66
2022-12-28T08:11:12.139Z,100629.63
2022-12-28T08:13:40.516Z,100642.00
2022-12-28T08:16:07.961Z,100635.59
2022-12-28T08:18:34.761Z,100628.53
2022-12-28T08:21:11.724Z,100632.38
2022-12-28T08:23:39.008Z,100628.44
2022-12-28T08:26:06.655Z,100641.09
2022-12-28T08:28:33.134Z,100646.50
2022-12-28T08:31:05.884Z,100634.13
2022-12-28T08:33:32.359Z,100650.34
2022-12-28T08:35:58.842Z,100625.19
2022-12-28T08:38:25.340Z,100635.19
2022-12-28T08:40:57.726Z,100625.19
2022-12-28T08:43:24.942Z,100627.75
2022-12-28T08:45:58.584Z,100629.66
2022-12-28T08:48:25.981Z,100629.91
2022-12-28T08:50:52.896Z,100637.19
2022-12-28T08:53:19.666Z,100638.25
2022-12-28T08:55:46.056Z,100633.16
2022-12-28T08:58:12.604Z,100637.56
2022-12-28T09:00:39.137Z,100639.19
2022-12-28T09:03:05.749Z,100644.66
2022-12-28T09:05:37.466Z,100631.13
2022-12-28T09:08:06.200Z,100641.25
2022-12-28T09:10:32.602Z,100647.16
2022-12-28T09:12:59.001Z,100639.81
2022-12-28T09:15:25.651Z,100650.38
2022-12-28T09:17:52.078Z,100649.63
2022-12-28T09:20:18.510Z,100645.56
2022-12-28T09:22:45.184Z,100644.56
2022-12-28T09:25:11.788Z,100647.81
2022-12-28T09:27:38.165Z,100649.50
2022-12-28T09:30:04.937Z,100665.53
2022-12-28T09:32:31.310Z,100647.94
2022-12-28T09:34:58.223Z,100644.44
2022-12-28T09:37:24.693Z,100650.41
2022-12-28T09:39:51.202Z,100647.22
2022-12-28T09:42:28.033Z,100645.91
2022-12-28T09:45:03.166Z,100642.13
2022-12-28T09:47:50.631Z,100638.84
2022-12-28T09:50:17.250Z,100646.50
2022-12-28T09:53:19.665Z,100636.81
2022-12-28T09:56:24.181Z,100641.97
2022-12-28T09:58:52.492Z,100641.19
2022-12-28T10:01:21.075Z,100632.00
2022-12-28T10:03:48.482Z,100625.84
2022-12-28T10:06:26.889Z,100634.03
2022-12-28T10:08:56.274Z,100641.00
2022-12-28T10:11:29.400Z,100631.56
2022-12-28T10:13:58.187Z,100636.72
2022-12-28T10:16:28.312Z,100621.31
2022-12-28T10:18:55.136Z,100619.47
2022-12-28T10:21:31.827Z,100625.97
2022-12-28T10:26:47.392Z,100617.88
2022-12-28T10:29:19.404Z,100620.28
2022-12-28T10:32:03.965Z,100612.97
2022-12-28T10:34:34.174Z,100610.28
2022-12-28T10:37:14.750Z,100615.47
2022-12-28T10:39:50.042Z,100615.78
2022-12-28T10:42:29.982Z,100617.63
2022-12-28T10:45:06.257Z,100606.53
2022-12-28T10:47:36.716Z,100597.38
2022-12-28T10:50:36.532Z,100605.75
2022-12-28T10:52:57.738Z,100599.53
2022-12-28T10:55:29.625Z,100604.97
2022-12-28T10:58:27.870Z,100593.03
2022-12-28T11:00:48.710Z,100594.66
2022-12-28T11:03:19.667Z,100589.25
2022-12-28T11:05:47.988Z,100582.47
2022-12-28T11:08:23.168Z,100584.38
2022-12-28T11:10:57.500Z,100595.47
2022-12-28T11:13:24.014Z,100585.19
2022-12-28T11:15:51.254Z,100571.13
2022-12-28T11:18:18.980Z,100574.09
2022-12-28T11:20:51.396Z,100574.66
2022-12-28T11:23:31.370Z,100573.06
2022-12-28T11:25:58.724Z,100575.75
2022-12-28T11:28:25.223Z,100574.13
2022-12-28T11:30:52.400Z,100577.91
2022-12-28T11:33:47.831Z,100570.84
2022-12-28T11:36:16.534Z,100569.25
2022-12-28T11:38:48.129Z,100564.63
2022-12-28T11:41:24.782Z,100563.84
2022-12-28T11:44:00.332Z,100565.72
2022-12-28T11:46:27.913Z,100564.38
2022-12-28T11:48:54.234Z,100554.09
2022-12-28T11:51:24.769Z,100547.91
2022-12-28T11:53:58.879Z,100545.94
2022-12-28T11:56:41.603Z,100547.84
2022-12-28T11:59:20.791Z,100548.13
2022-12-28T12:01:48.593Z,100544.63
2022-12-28T12:04:31.134Z,100551.91
2022-12-28T12:06:57.463Z,100544.31
2022-12-28T12:09:38.243Z,100542.97
2022-12-28T12:12:17.841Z,100544.56
2022-12-28T12:14:48.787Z,100540.78
2022-12-28T12:17:34.761Z,100538.56
2022-12-28T12:20:18.866Z,100541.03
2022-12-28T12:22:52.037Z,100535.63
2022-12-28T12:25:35.006Z,100537.25
2022-12-28T12:28:09.948Z,100538.34
2022-12-28T12:30:37.183Z,100526.69
2022-12-28T12:33:22.275Z,100528.28
2022-12-28T12:36:08.933Z,100524.22
2022-12-28T12:39:04.185Z,100512.28
2022-12-28T12:41:36.777Z,100518.03
2022-12-28T12:44:25.429Z,100523.44
2022-12-28T12:47:14.269Z,100519.63
2022-12-28T12:50:09.072Z,100509.84
2022-12-28T12:53:06.219Z,100506.34
2022-12-28T12:55:35.407Z,100518.28
2022-12-28T12:58:15.079Z,100510.91
2022-12-28T13:01:13.860Z,100502.00
2022-12-28T13:03:51.764Z,100499.88
2022-12-28T13:06:24.541Z,100482.81
2022-12-28T13:09:04.732Z,100488.50
2022-12-28T13:11:36.765Z,100492.00
2022-12-28T13:14:03.613Z,100490.69
2022-12-28T13:16:32.492Z,100486.34
2022-12-28T13:19:05.187Z,100488.22
2022-12-28T13:21:44.633Z,100477.66
2022-12-28T13:24:29.449Z,100475.78
2022-12-28T13:26:58.105Z,100466.56
2022-12-28T13:29:27.867Z,100477.38
2022-12-28T13:31:54.578Z,100468.94
2022-12-28T13:34:34.999Z,100466.50
2022-12-28T13:37:13.571Z,100466.50
2022-12-28T13:39:42.406Z,100458.69
2022-12-28T13:42:35.382Z,100464.91
2022-12-28T13:45:09.315Z,100463.59
2022-12-28T13:47:39.435Z,100457.84
2022-12-28T13:50:19.866Z,100458.69
2022-12-28T13:52:59.446Z,100454.09
2022-12-28T13:55:40.021Z,100459.25
2022-12-28T13:58:15.318Z,100452.75
2022-12-28T14:00:47.322Z,100442.19
2022-12-28T14:03:15.637Z,100439.75
2022-12-28T14:05:45.747Z,100437.03
2022-12-28T14:08:12.311Z,100443.78
2022-12-28T14:10:40.318Z,100436.50
2022-12-28T14:13:08.242Z,100439.78
2022-12-28T14:15:41.319Z,100437.34
2022-12-28T14:18:09.341Z,100441.94
2022-12-28T14:21:02.383Z,100444.63
2022-12-28T14:23:39.667Z,100444.63
2022-12-28T14:26:26.960Z,100444.41
2022-12-28T14:28:58.018Z,100448.47
2022-12-28T14:31:28.171Z,100446.03
2022-12-28T14:33:58.721Z,100450.09
2022-12-28T14:36:32.350Z,100439.25
2022-12-28T14:39:05.014Z,100441.16
2022-12-28T14:41:45.744Z,100439.81
2022-12-28T14:44:22.896Z,100439.53
2022-12-28T14:46:54.143Z,100439.00
2022-12-28T14:49:32.399Z,100429.50
2022-12-28T14:52:07.750Z,100444.41
2022-12-28T14:54:53.264Z,100438.47
2022-12-28T14:57:44.031Z,100446.06
2022-12-28T15:00:30.732Z,100460.69
2022-12-28T15:03:11.344Z,100448.47
2022-12-28T15:05:44.003Z,100443.03
2022-12-28T15:08:11.777Z,100437.34
2022-12-28T15:10:42.553Z,100440.59
2022-12-28T15:13:09.214Z,100447.38
2022-12-28T15:15:35.674Z,100447.34
2022-12-28T15:18:02.759Z,100439.75
2022-12-28T15:20:29.679Z,100436.78
2022-12-28T15:22:56.116Z,100432.16
2022-12-28T15:25:22.786Z,100432.41
2022-12-28T15:27:50.796Z,100433.19
2022-12-28T15:30:21.609Z,100417.19
2022-12-28T15:32:50.791Z,100421.00
2022-12-28T15:35:17.427Z,100416.41
2022-12-28T15:37:43.977Z,100404.19
2022-12-28T15:40:11.009Z,100406.38
2022-12-28T15:42:40.592Z,100405.56
2022-12-28T15:45:09.392Z,100385.22
2022-12-28T15:47:36.040Z,100398.50
2022-12-28T15:50:03.409Z,100396.06
2022-12-28T15:52:31.409Z,100399.03
2022-12-28T15:54:58.346Z,100397.72
2022-12-28T15:57:25.624Z,100395.53
2022-12-28T15:59:53.754Z,100386.84
2022-12-28T16:02:21.409Z,100390.09
2022-12-28T16:04:48.022Z,100391.19
2022-12-28T16:07:14.789Z,100386.03
2022-12-28T16:09:41.225Z,100388.19
2022-12-28T16:12:08.276Z,100379.25
2022-12-28T16:14:34.677Z,100368.13
2022-12-28T16:17:01.109Z,100377.34
2022-12-28T16:19:27.605Z,100372.72
2022-12-28T16:21:54.639Z,100376.53
2022-12-28T16:24:21.153Z,100378.97
2022-12-28T16:26:47.823Z,100358.94
2022-12-28T16:29:14.636Z,100351.59
2022-12-28T16:31:41.162Z,100352.97
2022-12-28T16:34:11.617Z,100351.91
2022-12-28T16:36:38.713Z,100346.19
2022-12-28T16:39:07.845Z,100347.81
2022-12-28T16:41:37.345Z,100348.34
2022-12-28T16:44:07.173Z,100329.16
2022-12-28T16:46:33.607Z,100342.94
2022-12-28T16:49:01.792Z,100338.88
2022-12-28T16:51:30.365Z,100327.22
2022-12-28T16:53:57.028Z,100323.47
2022-12-28T16:56:23.592Z,100308.00
2022-12-28T16:58:54.792Z,100317.50
2022-12-28T17:01:21.384Z,100315.06
2022-12-28T17:03:47.934Z,100319.91
2022-12-28T17:06:16.508Z,100319.88
2022-12-28T17:08:43.773Z,100312.06
2022-12-28T17:11:11.611Z,100316.91
2022-12-28T17:13:38.984Z,100297.19
2022-12-28T17:16:06.400Z,100297.44
2022-12-28T17:18:33.127Z,100298.03
2022-12-28T17:21:04.945Z,100285.84
2022-12-28T17:23:33.441Z,100279.34
2022-12-28T17:25:59.909Z,100275.84
2022-12-28T17:28:26.460Z,100275.84
2022-12-28T17:31:07.268Z,100267.97
2022-12-28T17:33:38.945Z,100267.72
2022-12-28T17:36:06.642Z,100257.97
2022-12-28T17:38:33.056Z,100253.34
2022-12-28T17:40:59.517Z,100251.75
2022-12-28T17:43:26.015Z,100237.13
2022-12-28T17:45:52.517Z,100237.38
2022-12-28T17:48:20.182Z,100240.91
2022-12-28T17:50:47.144Z,100230.63
2022-12-28T17:53:13.838Z,100230.88
2022-12-28T17:55:40.256Z,100220.31
2022-12-28T17:58:06.674Z,100226.56
2022-12-28T18:00:33.075Z,100217.88
2022-12-28T18:02:59.628Z,100200.53
2022-12-28T18:05:26.311Z,100207.88
2022-12-28T18:07:52.739Z,100203.00
2022-12-28T18:10:22.374Z,100198.13
2022-12-28T18:12:50.134Z,100195.41
2022-12-28T18:15:16.632Z,100192.44
2022-12-28T18:17:43.274Z,100190.00
2022-12-28T18:20:10.079Z,100184.31
2022-12-28T18:22:37.408Z,100182.41
2022-12-28T18:25:04.143Z,100173.75
2022-12-28T18:27:30.592Z,100173.75
2022-12-28T18:29:57.098Z,100162.66
2022-12-28T18:32:23.795Z,100170.50
2022-12-28T18:34:50.302Z,100161.84
2022-12-28T18:37:16.767Z,100168.06
2022-12-28T18:39:43.609Z,100159.66
2022-12-28T18:42:10.101Z,100158.03
2022-12-28T18:44:36.643Z,100147.75
2022-12-28T18:47:03.568Z,100142.63
2022-12-28T18:49:30.477Z,100146.66
2022-12-28T18:51:56.895Z,100135.56
2022-12-28T18:54:23.459Z,100125.56
2022-12-28T18:56:50.106Z,100119.09
2022-12-28T18:59:16.594Z,100116.91
2022-12-28T19:04:30.152Z,100117.44
2022-12-28T19:06:56.731Z,100119.84
2022-12-28T19:09:23.385Z,100128.00
2022-12-28T19:11:49.819Z,100113.38
2022-12-28T19:14:16.286Z,100115.56
2022-12-28T19:16:44.243Z,100126.66
2022-12-28T19:19:11.833Z,100118.25
2022-12-28T19:21:40.785Z,100107.13
2022-12-28T19:24:18.264Z,100100.41
2022-12-28T19:26:45.979Z,100107.69
2022-12-28T19:29:14.122Z,100105.56
2022-12-28T19:31:40.690Z,100107.72
2022-12-28T19:34:07.166Z,100100.44
2022-12-28T19:36:33.582Z,100091.22
2022-12-28T19:38:59.995Z,100091.75
2022-12-28T19:41:26.428Z,100086.88
2022-12-28T19:43:53.098Z,100086.34
2022-12-28T19:46:22.491Z,100084.19
2022-12-28T19:48:52.407Z,100075.00
2022-12-28T19:51:18.805Z,100073.91
2022-12-28T19:53:45.328Z,100069.31
2022-12-28T19:56:13.937Z,100069.06
2022-12-28T19:58:41.443Z,100064.72
2022-12-28T20:01:15.980Z,100048.22
2022-12-28T20:03:43.723Z,100053.38
2022-12-28T20:06:14.977Z,100049.84
2022-12-28T20:08:46.402Z,100049.84
2022-12-28T20:11:12.939Z,100047.13
2022-12-28T20:13:41.423Z,100033.91
2022-12-28T20:16:08.622Z,100030.66
2022-12-28T20:18:35.307Z,100017.38
2022-12-28T20:21:20.817Z,100017.66
2022-12-28T20:23:50.262Z,100004.69
2022-12-28T20:26:18.514Z,100003.06
2022-12-28T20:28:45.392Z,100000.09
2022-12-28T20:31:15.394Z,100004.41
2022-12-28T20:33:43.626Z,100001.97
2022-12-28T20:36:16.161Z,100003.88
2022-12-28T20:38:43.640Z,99993.31
2022-12-28T20:41:38.031Z,99995.50
2022-12-28T20:44:07.282Z,99989.56
2022-12-28T20:46:34.170Z,99989.00
2022-12-28T20:49:00.714Z,99980.91
2022-12-28T20:51:29.457Z,99973.06
2022-12-28T20:53:55.937Z,99965.50
2022-12-28T20:56:22.971Z,99956.84
2022-12-28T20:58:50.460Z,99957.66
2022-12-28T21:01:17.966Z,99956.03
2022-12-28T21:03:45.319Z,99946.31
2022-12-28T21:06:12.600Z,99943.88
2022-12-28T21:08:39.506Z,99942.50
2022-12-28T21:11:05.905Z,99931.44
2022-12-28T21:13:32.378Z,99936.00
2022-12-28T21:15:58.997Z,99928.72
2022-12-28T21:18:25.473Z,99920.59
2022-12-28T21:20:55.442Z,99926.81
2022-12-28T21:23:21.902Z,99920.84
2022-12-28T21:25:48.365Z,99919.81
2022-12-28T21:28:15.083Z,99921.16
2022-12-28T21:30:41.540Z,99917.66
2022-12-28T21:33:08.713Z,99906.56
2022-12-28T21:35:35.111Z,99897.09
2022-12-28T21:38:04.986Z,99895.47
2022-12-28T21:40:31.461Z,99892.22
2022-12-28T21:42:57.876Z,99900.63
2022-12-28T21:45:24.311Z,99890.59
2022-12-28T21:47:50.794Z,99889.28
2022-12-28T21:50:17.473Z,99896.00
2022-12-28T21:52:44.269Z,99906.03
2022-12-28T21:55:29.726Z,99895.19
2022-12-28T21:57:57.200Z,99891.38
2022-12-28T22:00:44.369Z,99890.31
2022-12-28T22:03:29.582Z,99895.19
2022-12-28T22:06:02.568Z,99890.81
2022-12-28T22:08:51.757Z,99892.47
2022-12-28T22:11:38.489Z,99873.81
2022-12-28T22:14:08.026Z,99872.97
2022-12-28T22:16:35.506Z,99872.69
2022-12-28T22:19:04.238Z,99871.31
2022-12-28T22:21:31.179Z,99866.47
2022-12-28T22:23:57.664Z,99868.91
2022-12-28T22:26:24.088Z,99871.13
2022-12-28T22:28:50.603Z,99867.84
2022-12-28T22:31:17.037Z,99871.91
2022-12-28T22:33:43.832Z,99868.09
2022-12-28T22:36:16.722Z,99872.75
2022-12-28T22:38:43.872Z,99870.00
2022-12-28T22:41:10.878Z,99861.91
2022-12-28T22:43:37.589Z,99854.06
2022-12-28T22:46:06.949Z,99866.47
2022-12-28T22:48:34.021Z,99862.69
2022-12-28T22:51:03.322Z,99864.88
2022-12-28T22:53:30.098Z,99864.59
2022-12-28T22:56:02.473Z,99851.34
2022-12-28T22:58:29.464Z,99831.06
2022-12-28T23:01:13.161Z,99844.28
2022-12-28T23:03:41.265Z,99845.09
2022-12-28T23:06:09.336Z,99832.34
2022-12-28T23:08:35.800Z,99834.81
2022-12-28T23:11:04.533Z,99842.63
2022-12-28T23:13:34.223Z,99828.28
2022-12-28T23:16:03.426Z,99832.06
2022-12-28T23:18:48.646Z,99840.22
2022-12-28T23:22:02.895Z,99823.69
2022-12-28T23:24:48.187Z,99822.56
2022-12-28T23:27:20.604Z,99826.94
2022-12-28T23:29:47.038Z,99823.69
2022-12-28T23:32:13.919Z,99820.94
2022-12-28T23:34:40.371Z,99809.84
2022-12-28T23:37:06.888Z,99809.59
2022-12-28T23:39:33.304Z,99813.06
2022-12-28T23:41:59.763Z,99816.56
2022-12-28T23:44:27.012Z,99807.91
2022-12-28T23:46:58.961Z,99803.03
2022-12-28T23:49:26.118Z,99795.69
2022-12-28T23:51:52.740Z,99810.03
2022-12-28T23:54:19.872Z,99805.69
2022-12-28T23:56:47.311Z,99799.50
2022-12-28T23:59:14.065Z,99795.19
